createdAt,value
2023-01-10T00:01:06.976Z,4.90
2023-01-10T00:06:11.341Z,5.20
2023-01-10T00:11:34.104Z,5.40
2023-01-10T00:16:39.812Z,5.10
2023-01-10T00:21:44.112Z,5.40
2023-01-10T00:26:54.137Z,5.50
2023-01-10T00:31:58.625Z,5.70
2023-01-10T00:37:02.856Z,5.30
2023-01-10T00:42:26.332Z,5.00
2023-01-10T00:47:30.580Z,5.30
2023-01-10T00:52:35.538Z,5.10
2023-01-10T00:57:39.753Z,5.50
2023-01-10T01:02:44.068Z,5.20
2023-01-10T01:07:52.847Z,5.70
2023-01-10T01:12:59.328Z,5.20
2023-01-10T01:18:07.254Z,5.30
2023-01-10T01:23:11.897Z,5.10
2023-01-10T01:28:16.253Z,5.60
2023-01-10T01:33:21.296Z,5.10
2023-01-10T01:38:25.736Z,5.20
2023-01-10T01:43:34.885Z,5.50
2023-01-10T01:48:41.959Z,5.40
2023-01-10T01:53:52.079Z,5.50
2023-01-10T01:59:02.027Z,5.40
2023-01-10T02:04:14.200Z,5.60
2023-01-10T02:09:40.375Z,5.30
2023-01-10T02:14:47.089Z,5.60
2023-01-10T02:20:24.266Z,5.70
2023-01-10T02:25:47.380Z,5.50
2023-01-10T02:31:21.486Z,5.30
2023-01-10T02:36:37.640Z,5.40
2023-01-10T02:41:52.842Z,5.80
2023-01-10T02:46:57.737Z,5.20
2023-01-10T02:52:02.048Z,5.80
2023-01-10T02:57:27.103Z,5.60
2023-01-10T03:02:58.789Z,5.70
2023-01-10T03:08:12.575Z,5.40
2023-01-10T03:13:38.397Z,5.30
2023-01-10T03:18:49.009Z,5.70
2023-01-10T03:23:57.432Z,6.10
2023-01-10T03:29:08.987Z,5.50
2023-01-10T03:34:13.658Z,5.50
2023-01-10T03:39:40.613Z,5.30
2023-01-10T03:45:10.063Z,5.40
2023-01-10T03:50:19.383Z,5.50
2023-01-10T03:55:27.303Z,5.30
2023-01-10T04:00:32.271Z,5.70
2023-01-10T04:05:36.717Z,6.00
2023-01-10T04:10:40.940Z,5.50
2023-01-10T04:15:45.436Z,5.20
2023-01-10T04:20:52.052Z,5.50
2023-01-10T04:25:56.610Z,5.70
2023-01-10T04:31:08.276Z,5.90
2023-01-10T04:36:13.280Z,6.40
2023-01-10T04:41:17.730Z,6.30
2023-01-10T04:46:22.084Z,5.30
2023-01-10T04:51:27.833Z,6.10
2023-01-10T04:56:31.949Z,4.80
2023-01-10T05:01:39.583Z,5.70
2023-01-10T05:06:43.710Z,5.40
2023-01-10T05:11:48.471Z,5.40
2023-01-10T05:16:53.336Z,5.30
2023-01-10T05:21:57.758Z,4.80
2023-01-10T05:27:02.092Z,5.70
2023-01-10T05:32:06.643Z,5.20
2023-01-10T05:37:10.869Z,5.40
2023-01-10T05:42:15.312Z,4.70
2023-01-10T05:47:19.868Z,5.50
2023-01-10T05:52:24.712Z,4.90
2023-01-10T05:57:29.056Z,5.20
2023-01-10T06:02:34.160Z,4.40
2023-01-10T06:07:38.763Z,4.30
2023-01-10T06:12:43.918Z,4.90
2023-01-10T06:17:51.108Z,5.00
2023-01-10T06:22:55.765Z,4.30
2023-01-10T06:28:00.110Z,5.20
2023-01-10T06:33:09.228Z,4.60
2023-01-10T06:38:22.200Z,4.60
2023-01-10T06:43:26.637Z,4.30
2023-01-10T06:48:30.862Z,4.90
2023-01-10T06:53:35.316Z,4.60
2023-01-10T06:58:40.765Z,4.50
2023-01-10T07:03:45.679Z,4.20
2023-01-10T07:08:49.858Z,4.30
2023-01-10T07:13:54.518Z,4.30
2023-01-10T07:19:01.016Z,4.30
2023-01-10T07:24:05.855Z,3.70
2023-01-10T07:29:10.617Z,4.60
2023-01-10T07:34:15.052Z,3.80
2023-01-10T07:39:19.385Z,3.70
2023-01-10T07:44:26.793Z,3.90
2023-01-10T07:49:39.949Z,4.10
2023-01-10T07:54:44.575Z,3.80
2023-01-10T07:59:48.705Z,4.60
2023-01-10T08:04:52.954Z,4.00
2023-01-10T08:09:57.177Z,3.90
2023-01-10T08:15:01.637Z,3.90
2023-01-10T08:20:06.625Z,4.10
2023-01-10T08:25:11.535Z,4.20
2023-01-10T08:30:16.302Z,3.90
2023-01-10T08:35:21.038Z,4.20
2023-01-10T08:40:25.378Z,4.10
2023-01-10T08:45:30.840Z,3.80
2023-01-10T08:50:41.317Z,3.80
2023-01-10T08:55:45.456Z,3.70
2023-01-10T09:00:50.320Z,3.60
2023-01-10T09:05:54.386Z,3.90
2023-01-10T09:11:01.236Z,3.20
2023-01-10T09:16:05.980Z,3.40
2023-01-10T09:21:10.112Z,3.70
2023-01-10T09:26:14.708Z,3.30
2023-01-10T09:31:22.151Z,3.30
2023-01-10T09:36:26.214Z,3.30
2023-01-10T09:41:59.000Z,2.90
2023-01-10T09:52:33.772Z,2.80
2023-01-10T09:57:38.211Z,3.20
2023-01-10T10:02:46.765Z,3.50
2023-01-10T10:08:05.577Z,3.20
2023-01-10T10:13:37.090Z,2.60
2023-01-10T10:19:42.102Z,3.50
2023-01-10T10:25:04.986Z,2.90
2023-01-10T10:30:20.879Z,2.90
2023-01-10T10:36:16.022Z,2.70
2023-01-10T10:42:06.127Z,3.10
2023-01-10T10:47:22.710Z,3.20
2023-01-10T10:52:35.182Z,3.00
2023-01-10T10:57:48.419Z,3.10
2023-01-10T11:03:07.872Z,2.60
2023-01-10T11:08:20.518Z,2.80
2023-01-10T11:13:40.036Z,3.10
2023-01-10T11:19:04.439Z,2.90
2023-01-10T11:24:51.341Z,2.70
2023-01-10T11:30:09.735Z,2.60
2023-01-10T11:35:25.596Z,3.00
2023-01-10T11:40:31.752Z,2.70
2023-01-10T11:45:37.477Z,2.60
2023-01-10T11:50:46.524Z,3.00
2023-01-10T11:55:51.052Z,2.60
2023-01-10T12:00:57.442Z,2.60
2023-01-10T12:06:05.141Z,2.70
2023-01-10T12:11:18.494Z,2.20
2023-01-10T12:16:28.963Z,2.80
2023-01-10T12:21:46.039Z,2.70
2023-01-10T12:26:54.120Z,2.30
2023-01-10T12:32:01.241Z,2.50
2023-01-10T12:37:24.084Z,2.40
2023-01-10T12:43:19.187Z,2.60
2023-01-10T12:48:34.683Z,2.70
2023-01-10T12:53:49.166Z,2.30
2023-01-10T12:59:02.197Z,2.50
2023-01-10T13:04:11.861Z,2.60
2023-01-10T13:09:22.723Z,2.40
2023-01-10T13:14:52.457Z,2.30
2023-01-10T13:20:24.850Z,2.50
2023-01-10T13:25:35.390Z,2.20
2023-01-10T13:30:43.846Z,2.30
2023-01-10T13:35:49.750Z,2.60
2023-01-10T13:41:03.470Z,2.40
2023-01-10T13:46:28.650Z,2.40
2023-01-10T13:51:33.350Z,2.50
2023-01-10T13:56:42.669Z,2.50
2023-01-10T14:02:13.875Z,2.40
2023-01-10T14:07:23.890Z,2.30
2023-01-10T14:12:47.451Z,2.40
2023-01-10T14:18:05.137Z,2.40
2023-01-10T14:23:21.833Z,2.30
2023-01-10T14:28:34.392Z,2.50
2023-01-10T14:33:42.834Z,2.40
2023-01-10T14:38:50.034Z,2.60
2023-01-10T14:44:14.657Z,2.40
2023-01-10T14:49:20.812Z,2.10
2023-01-10T14:54:25.355Z,2.00
2023-01-10T14:59:36.557Z,2.20
2023-01-10T15:04:54.289Z,2.40
2023-01-10T15:10:06.618Z,2.20
2023-01-10T15:20:22.089Z,2.30
2023-01-10T15:25:41.052Z,2.10
2023-01-10T15:30:45.777Z,2.00
2023-01-10T15:35:50.116Z,2.80
2023-01-10T15:41:04.166Z,2.20
2023-01-10T15:46:22.289Z,2.50
2023-01-10T15:51:35.295Z,2.10
2023-01-10T15:56:42.580Z,2.10
2023-01-10T16:01:57.663Z,2.60
2023-01-10T16:07:19.198Z,2.00
2023-01-10T16:12:55.772Z,2.30
2023-01-10T16:18:00.343Z,2.40
2023-01-10T16:23:13.642Z,2.40
2023-01-10T16:28:19.522Z,2.20
2023-01-10T16:33:27.371Z,2.20
2023-01-10T16:38:31.782Z,2.20
2023-01-10T16:43:35.820Z,2.00
2023-01-10T16:48:40.578Z,2.50
2023-01-10T16:53:46.037Z,2.20
2023-01-10T16:58:51.578Z,2.50
2023-01-10T17:03:56.972Z,2.30
2023-01-10T17:09:01.089Z,2.30
2023-01-10T17:14:06.260Z,2.40
2023-01-10T17:19:10.498Z,2.30
2023-01-10T17:24:15.039Z,2.10
2023-01-10T17:29:23.389Z,2.40
2023-01-10T17:34:31.798Z,2.60
2023-01-10T17:39:38.175Z,2.10
2023-01-10T17:44:42.759Z,2.50
2023-01-10T17:49:47.076Z,2.20
2023-01-10T17:54:51.723Z,1.80
2023-01-10T17:59:56.358Z,2.20
2023-01-10T18:05:00.911Z,2.50
2023-01-10T18:10:16.944Z,2.60
2023-01-10T18:15:27.628Z,2.60
2023-01-10T18:20:32.289Z,2.70
2023-01-10T18:25:36.777Z,2.20
2023-01-10T18:30:45.123Z,2.40
2023-01-10T18:35:57.958Z,2.70
2023-01-10T18:46:10.871Z,2.30
2023-01-10T18:51:26.020Z,2.80
2023-01-10T18:56:41.501Z,2.20
2023-01-10T19:01:47.008Z,2.60
2023-01-10T19:06:56.839Z,2.70
2023-01-10T19:12:01.917Z,2.70
2023-01-10T19:17:07.363Z,2.90
2023-01-10T19:22:13.373Z,2.50
2023-01-10T19:27:22.186Z,2.30
2023-01-10T19:32:36.971Z,2.40
2023-01-10T19:37:41.909Z,2.80
2023-01-10T19:42:48.302Z,2.60
2023-01-10T19:47:55.599Z,2.60
2023-01-10T19:53:01.312Z,2.60
2023-01-10T19:58:07.146Z,2.90
2023-01-10T20:03:16.422Z,2.50
2023-01-10T20:08:29.436Z,1.90
2023-01-10T20:13:39.366Z,2.70
2023-01-10T20:18:47.056Z,2.50
2023-01-10T20:24:00.895Z,2.80
2023-01-10T20:29:07.247Z,2.20
2023-01-10T20:34:13.238Z,2.30
2023-01-10T20:39:19.025Z,2.60
2023-01-10T20:44:24.083Z,2.50
2023-01-10T20:49:28.841Z,2.60
2023-01-10T20:54:45.309Z,2.50
2023-01-10T20:59:50.200Z,2.80
2023-01-10T21:04:56.977Z,2.80
2023-01-10T21:10:01.721Z,2.50
2023-01-10T21:15:09.128Z,2.60
2023-01-10T21:20:14.256Z,2.40
2023-01-10T21:25:21.708Z,2.80
2023-01-10T21:30:26.247Z,2.70
2023-01-10T21:35:30.598Z,2.50
2023-01-10T21:40:44.137Z,2.20
2023-01-10T21:45:50.921Z,2.50
2023-01-10T21:50:55.477Z,2.80
2023-01-10T21:56:02.486Z,2.20
2023-01-10T22:01:28.098Z,2.80
2023-01-10T22:06:32.377Z,2.50
2023-01-10T22:11:36.879Z,2.40
2023-01-10T22:16:41.258Z,2.40
2023-01-10T22:21:45.459Z,2.30
2023-01-10T22:26:49.841Z,2.60
2023-01-10T22:31:54.682Z,2.60
2023-01-10T22:36:58.891Z,2.40
2023-01-10T22:42:03.213Z,2.30
2023-01-10T22:47:07.570Z,2.60
2023-01-10T22:52:11.999Z,2.60
2023-01-10T22:57:16.135Z,2.90
2023-01-10T23:02:20.314Z,2.60
2023-01-10T23:07:24.835Z,2.50
2023-01-10T23:12:28.845Z,2.70
2023-01-10T23:17:32.885Z,2.90
2023-01-10T23:22:37.018Z,2.70
2023-01-10T23:27:41.159Z,2.50
2023-01-10T23:32:45.183Z,2.60
2023-01-10T23:37:49.320Z,2.70
2023-01-10T23:42:53.368Z,2.50
2023-01-10T23:47:57.702Z,2.90
2023-01-10T23:53:01.808Z,2.50
2023-01-10T23:58:06.170Z,2.70
